Time;durP1;ratioP1;P1;durP2;ratioP2;P2;SDS_P1;SDS_P2;PMS_P1;PMS_P2;Temp;Humidity;BMP_temperature;BMP_pressure;BME280_temperature;BME280_humidity;BME280_pressure;Samples;Min_cycle;Max_cycle;Signal;HPM_P1;HPM_P2
2023/10/27 00:02:21;;;;;;;;;5.00;1.00;;;;;16.85;100.00;99093.06;4975388;28;57523;-69
2023/10/27 00:04:47;;;;;;;;;2.67;1.00;;;;;16.81;100.00;99094.13;4975436;28;73463;-67
2023/10/27 00:07:12;;;;;;;;;1.00;1.00;;;;;16.73;100.00;99098.00;4975281;28;72262;-68
2023/10/27 00:09:37;;;;;;;;;2.00;1.00;;;;;16.70;100.00;99097.22;4979057;28;68792;-68
2023/10/27 00:12:04;;;;;;;;;3.00;1.00;;;;;16.69;100.00;99095.47;4976034;28;45561;-70
2023/10/27 00:14:29;;;;;;;;;3.00;1.00;;;;;16.69;100.00;99098.16;4978521;28;45694;-68
2023/10/27 00:16:55;;;;;;;;;2.00;1.67;;;;;16.71;100.00;99099.84;4975187;28;71107;-69
2023/10/27 00:19:20;;;;;;;;;2.00;2.00;;;;;16.70;100.00;99099.88;4978633;28;48075;-68
2023/10/27 00:21:45;;;;;;;;;3.00;3.00;;;;;16.69;100.00;99111.47;4976095;28;64199;-68
2023/10/27 00:24:11;;;;;;;;;2.00;2.00;;;;;16.64;100.00;99110.78;4975254;28;73950;-68
2023/10/27 00:26:36;;;;;;;;;2.00;2.00;;;;;16.60;100.00;99096.72;4976907;28;45333;-68
2023/10/27 00:29:02;;;;;;;;;4.00;2.67;;;;;16.62;100.00;99102.88;4975794;28;64465;-66
2023/10/27 00:31:27;;;;;;;;;2.00;2.00;;;;;16.59;100.00;99108.31;4984207;28;45545;-67
2023/10/27 00:33:52;;;;;;;;;3.67;2.00;;;;;16.53;100.00;99113.91;4976072;28;45768;-68
2023/10/27 00:36:18;;;;;;;;;2.00;2.00;;;;;16.54;100.00;99122.75;4958959;28;66849;-68
2023/10/27 00:38:47;;;;;;;;;3.00;2.00;;;;;16.50;100.00;99130.00;4975580;28;68333;-68
2023/10/27 00:41:13;;;;;;;;;4.67;3.00;;;;;16.56;100.00;99128.88;4976346;28;45597;-68
2023/10/27 00:43:38;;;;;;;;;4.00;2.00;;;;;16.58;100.00;99130.56;4976448;28;45433;-68
2023/10/27 00:46:03;;;;;;;;;2.00;2.00;;;;;16.59;100.00;99131.44;4974946;28;72954;-68
2023/10/27 00:48:29;;;;;;;;;2.67;2.67;;;;;16.56;100.00;99119.09;4975925;28;48249;-69
2023/10/27 00:50:54;;;;;;;;;3.00;3.00;;;;;16.66;100.00;99125.78;4975788;28;45241;-68
2023/10/27 00:53:20;;;;;;;;;5.67;3.00;;;;;16.65;100.00;99120.50;4975779;28;46493;-68
2023/10/27 00:55:47;;;;;;;;;2.00;2.00;;;;;16.66;100.00;99128.44;4959311;28;45399;-68
2023/10/27 00:58:13;;;;;;;;;5.33;3.67;;;;;16.67;100.00;99132.88;4978252;28;45566;-69
2023/10/27 01:00:39;;;;;;;;;1.67;1.00;;;;;16.64;100.00;99134.78;4978523;28;45230;-68
2023/10/27 01:03:04;;;;;;;;;2.00;2.00;;;;;16.64;100.00;99132.13;4977996;28;52804;-68
2023/10/27 01:05:30;;;;;;;;;4.33;4.00;;;;;16.61;100.00;99127.75;4979033;28;51695;-68
2023/10/27 01:07:55;;;;;;;;;3.67;2.00;;;;;16.64;100.00;99132.13;4979632;28;45367;-68
2023/10/27 01:10:21;;;;;;;;;3.00;2.00;;;;;16.66;100.00;99140.91;4978526;28;66565;-68
2023/10/27 01:12:49;;;;;;;;;2.00;2.00;;;;;16.63;100.00;99135.72;4961829;28;46369;-70
2023/10/27 01:15:15;;;;;;;;;2.00;2.00;;;;;16.65;100.00;99144.50;4979357;28;45329;-68
2023/10/27 01:17:40;;;;;;;;;3.00;3.00;;;;;16.64;100.00;99142.78;4979718;28;45307;-69
2023/10/27 01:20:07;;;;;;;;;2.00;2.00;;;;;16.64;100.00;99137.44;4978968;28;46087;-69
2023/10/27 01:22:33;;;;;;;;;3.67;3.00;;;;;16.65;100.00;99139.16;4944946;28;47763;-70
2023/10/27 01:24:59;;;;;;;;;3.00;2.00;;;;;16.64;100.00;99140.09;4977403;28;59627;-67
2023/10/27 01:27:24;;;;;;;;;3.33;1.00;;;;;16.64;100.00;99138.31;4985772;28;45543;-70
2023/10/27 01:29:49;;;;;;;;;3.67;3.00;;;;;16.58;100.00;99143.88;4977569;28;60516;-69
2023/10/27 01:32:15;;;;;;;;;4.00;3.00;;;;;16.58;100.00;99143.03;4977407;28;68639;-68
2023/10/27 01:34:40;;;;;;;;;2.00;2.00;;;;;16.56;100.00;99142.19;4978022;28;66195;-67
2023/10/27 01:37:05;;;;;;;;;3.67;2.00;;;;;16.50;100.00;99135.31;4947186;28;45352;-69
2023/10/27 01:39:31;;;;;;;;;2.00;2.00;;;;;16.50;100.00;99135.31;4978042;28;66740;-69
2023/10/27 01:41:56;;;;;;;;;4.00;2.00;;;;;16.49;100.00;99138.94;4977859;28;71192;-70
2023/10/27 01:44:21;;;;;;;;;2.00;2.00;;;;;16.49;100.00;99152.25;4979267;28;63316;-70
2023/10/27 01:46:47;;;;;;;;;2.00;2.00;;;;;16.49;100.00;99138.94;4978184;28;45592;-70
2023/10/27 01:49:12;;;;;;;;;2.67;2.00;;;;;16.43;100.00;99145.38;4977577;28;64581;-70
2023/10/27 01:51:37;;;;;;;;;3.00;1.00;;;;;16.38;100.00;99149.16;4977049;28;45661;-67
2023/10/27 01:54:03;;;;;;;;;3.00;2.00;;;;;16.35;100.00;99144.81;4978018;28;45491;-68
2023/10/27 01:56:30;;;;;;;;;2.00;2.00;;;;;16.35;100.00;99141.25;4978155;28;45288;-70
2023/10/27 01:58:55;;;;;;;;;1.00;1.00;;;;;16.30;100.00;99145.91;4978508;28;45363;-68
2023/10/27 02:01:21;;;;;;;;;1.67;1.00;;;;;16.27;100.00;99154.03;4977668;28;45455;-70
2023/10/27 02:03:46;;;;;;;;;2.33;1.00;;;;;16.21;100.00;99150.69;4976915;28;45409;-70
2023/10/27 02:06:11;;;;;;;;;2.00;2.00;;;;;16.21;100.00;99158.66;4978375;28;45475;-68
2023/10/27 02:08:38;;;;;;;;;2.00;0.67;;;;;16.15;100.00;99160.72;4958476;28;46423;-68
2023/10/27 02:11:05;;;;;;;;;1.67;1.00;;;;;16.12;100.00;99153.69;4977529;28;45954;-68
2023/10/27 02:13:30;;;;;;;;;3.00;1.00;;;;;16.09;100.00;99153.81;4978386;28;45376;-68
2023/10/27 02:15:56;;;;;;;;;1.00;1.00;;;;;16.07;100.00;99149.47;4977116;28;69117;-67
2023/10/27 02:18:21;;;;;;;;;3.00;1.67;;;;;16.01;100.00;99152.38;4977746;28;45604;-69
2023/10/27 02:20:48;;;;;;;;;2.00;0.00;;;;;15.96;100.00;99150.75;4974981;28;75433;-68
2023/10/27 02:23:15;;;;;;;;;0.67;0.67;;;;;15.96;100.00;99156.06;4977778;28;45552;-69
2023/10/27 02:25:40;;;;;;;;;3.33;1.00;;;;;15.92;100.00;99151.78;4977564;28;45463;-68
2023/10/27 02:28:06;;;;;;;;;4.00;1.00;;;;;15.89;100.00;99154.56;4978152;28;45423;-70
2023/10/27 02:30:31;;;;;;;;;2.00;1.00;;;;;15.85;100.00;99158.25;4975688;28;67932;-68
2023/10/27 02:32:56;;;;;;;;;4.33;1.00;;;;;15.81;100.00;99158.44;4976184;28;71878;-68
2023/10/27 02:35:22;;;;;;;;;1.33;1.00;;;;;15.82;100.00;99157.50;4945083;28;59536;-69
2023/10/27 02:37:48;;;;;;;;;1.00;1.00;;;;;15.78;100.00;99154.09;4977312;28;45210;-70
2023/10/27 02:40:13;;;;;;;;;3.67;1.00;;;;;15.76;100.00;99149.75;4977247;28;48240;-68
2023/10/27 02:42:39;;;;;;;;;4.00;1.00;;;;;15.73;100.00;99150.75;4977159;28;45197;-68
2023/10/27 02:45:06;;;;;;;;;4.67;2.00;;;;;15.69;100.00;99152.63;4977520;28;45336;-70
2023/10/27 02:47:31;;;;;;;;;3.33;1.00;;;;;15.68;100.00;99155.38;4978232;28;45294;-68
2023/10/27 02:49:57;;;;;;;;;0.00;0.00;;;;;15.64;100.00;99154.59;4977134;28;46680;-69
2023/10/27 02:52:22;;;;;;;;;2.00;1.00;;;;;15.60;100.00;99152.06;4975982;28;72821;-68
2023/10/27 02:54:47;;;;;;;;;1.00;1.00;;;;;15.58;100.00;99146.81;4977061;28;45498;-69
2023/10/27 02:57:13;;;;;;;;;4.00;1.00;;;;;15.57;100.00;99150.41;4960508;28;45482;-68
2023/10/27 02:59:38;;;;;;;;;1.67;1.00;;;;;15.57;100.00;99153.06;4976460;28;76689;-68
2023/10/27 03:02:05;;;;;;;;;1.67;1.67;;;;;15.57;100.00;99149.53;4978894;28;72663;-69
2023/10/27 03:04:30;;;;;;;;;3.67;1.00;;;;;15.54;100.00;99161.16;4976876;28;45400;-68
2023/10/27 03:06:55;;;;;;;;;1.33;1.00;;;;;15.53;100.00;99154.09;4977032;28;45410;-68
2023/10/27 03:09:21;;;;;;;;;3.67;2.00;;;;;15.54;100.00;99158.47;4976672;28;72197;-70
2023/10/27 03:11:46;;;;;;;;;2.00;1.00;;;;;15.54;100.00;99163.81;4976269;28;72183;-68
2023/10/27 03:14:12;;;;;;;;;4.00;2.00;;;;;15.52;100.00;99163.00;4976869;28;63549;-68
2023/10/27 03:16:37;;;;;;;;;3.33;2.00;;;;;15.52;100.00;99165.66;4976971;28;45471;-68
2023/10/27 03:19:02;;;;;;;;;1.33;1.33;;;;;15.52;100.00;99176.31;4958765;28;74379;-69
2023/10/27 03:21:27;;;;;;;;;2.00;1.67;;;;;15.56;100.00;99174.41;4975875;28;45503;-68
2023/10/27 03:23:53;;;;;;;;;4.00;1.00;;;;;15.55;100.00;99165.53;4976527;28;60132;-67
2023/10/27 03:26:18;;;;;;;;;4.67;1.00;;;;;15.59;100.00;99171.63;4976675;28;63850;-68
2023/10/27 03:28:43;;;;;;;;;1.00;1.00;;;;;15.60;100.00;99174.22;4975337;28;72963;-67
2023/10/27 03:31:12;;;;;;;;;0.67;0.67;;;;;15.59;100.00;99167.16;4975676;28;73728;-68
2023/10/27 03:33:38;;;;;;;;;5.33;1.00;;;;;15.63;100.00;99174.16;4978509;28;45666;-68
2023/10/27 03:36:03;;;;;;;;;2.00;2.00;;;;;15.64;100.00;99173.22;4976936;28;67477;-70
2023/10/27 03:38:29;;;;;;;;;3.33;2.00;;;;;15.63;100.00;99176.81;4976446;28;46283;-67
2023/10/27 03:40:54;;;;;;;;;1.00;1.00;;;;;15.69;100.00;99181.91;4975894;28;71462;-67
2023/10/27 03:43:19;;;;;;;;;2.67;1.00;;;;;15.73;100.00;99173.84;4976853;28;45267;-68
2023/10/27 03:45:45;;;;;;;;;5.33;1.33;;;;;15.77;100.00;99178.13;4959808;28;45456;-70
2023/10/27 03:48:10;;;;;;;;;3.33;2.00;;;;;15.80;100.00;99180.66;4975136;28;76939;-67
2023/10/27 03:50:36;;;;;;;;;5.00;2.00;;;;;15.80;100.00;99167.34;4976808;28;45317;-69
2023/10/27 03:53:01;;;;;;;;;2.00;2.00;;;;;15.84;100.00;99176.97;4959586;28;45291;-68
2023/10/27 03:55:27;;;;;;;;;2.00;2.00;;;;;15.86;100.00;99172.44;4975789;28;54617;-69
2023/10/27 03:57:54;;;;;;;;;3.33;1.00;;;;;15.84;100.00;99168.97;4976406;28;47481;-69
2023/10/27 04:00:20;;;;;;;;;4.33;2.33;;;;;15.86;100.00;99172.44;4958399;28;45510;-68
2023/10/27 04:02:46;;;;;;;;;3.00;2.00;;;;;15.88;100.00;99165.28;4959539;28;45369;-69
2023/10/27 04:05:11;;;;;;;;;1.33;1.33;;;;;15.89;100.00;99167.00;4976839;28;45574;-68
2023/10/27 04:07:36;;;;;;;;;3.00;1.33;;;;;15.90;100.00;99168.75;4959081;28;45629;-68
2023/10/27 04:10:02;;;;;;;;;4.00;1.33;;;;;15.93;100.00;99169.50;4976412;28;50690;-69
2023/10/27 04:12:27;;;;;;;;;2.00;2.00;;;;;15.94;100.00;99170.38;4975200;28;45530;-69
2023/10/27 04:14:52;;;;;;;;;3.00;2.00;;;;;15.89;100.00;99167.88;4975600;28;64268;-69
2023/10/27 04:17:18;;;;;;;;;4.67;2.00;;;;;15.83;100.00;99175.22;4958099;28;68505;-68
2023/10/27 04:19:43;;;;;;;;;5.00;2.00;;;;;15.76;100.00;99163.06;4976199;28;49941;-68
2023/10/27 04:22:09;;;;;;;;;4.33;1.00;;;;;15.80;100.00;99175.34;4975528;28;69752;-68
2023/10/27 04:24:34;;;;;;;;;3.67;2.00;;;;;15.76;100.00;99181.69;4976272;28;45241;-68
2023/10/27 04:27:00;;;;;;;;;4.33;1.33;;;;;15.71;100.00;99181.84;4975309;28;76602;-69
2023/10/27 04:29:25;;;;;;;;;5.00;2.00;;;;;15.67;100.00;99190.88;4958251;28;45482;-68
2023/10/27 04:31:51;;;;;;;;;2.00;2.00;;;;;15.65;100.00;99185.59;4977553;28;46434;-69
2023/10/27 04:34:16;;;;;;;;;2.00;0.67;;;;;15.63;100.00;99187.47;4979185;28;46436;-70
2023/10/27 04:36:41;;;;;;;;;4.33;2.67;;;;;15.60;100.00;99190.19;4978638;28;65385;-68
2023/10/27 04:39:06;;;;;;;;;1.00;1.00;;;;;15.63;100.00;99199.91;4979520;28;45383;-68
2023/10/27 04:41:32;;;;;;;;;5.00;2.33;;;;;15.62;100.00;99199.00;4978374;28;67932;-70
2023/10/27 04:43:58;;;;;;;;;3.00;2.00;;;;;15.64;100.00;99201.63;4979787;28;45296;-69
2023/10/27 04:46:23;;;;;;;;;2.00;2.00;;;;;15.70;100.00;99201.41;4961474;28;63591;-68
2023/10/27 04:48:49;;;;;;;;;2.67;2.00;;;;;15.74;100.00;99207.50;4979297;28;50007;-70
2023/10/27 04:51:14;;;;;;;;;1.33;1.33;;;;;15.76;100.00;99210.97;4978606;28;67981;-67
2023/10/27 04:53:40;;;;;;;;;4.00;1.00;;;;;15.75;100.00;99206.56;4978781;28;45645;-68
2023/10/27 04:56:06;;;;;;;;;2.33;2.00;;;;;15.79;100.00;99213.53;4978281;28;70508;-68
2023/10/27 04:58:31;;;;;;;;;2.00;2.00;;;;;15.76;100.00;99211.81;4961264;28;45552;-70
2023/10/27 05:00:56;;;;;;;;;2.00;2.00;;;;;15.79;100.00;99224.16;4979223;28;45333;-68
2023/10/27 05:03:22;;;;;;;;;3.00;1.00;;;;;15.77;100.00;99218.03;4979242;28;45489;-70
2023/10/27 05:05:47;;;;;;;;;2.33;2.33;;;;;15.79;100.00;99218.84;4979338;28;46357;-67
2023/10/27 05:08:12;;;;;;;;;3.33;2.67;;;;;15.81;100.00;99227.63;4978106;28;69351;-69
2023/10/27 05:10:40;;;;;;;;;2.00;1.00;;;;;15.84;100.00;99216.88;4978466;28;68291;-70
2023/10/27 05:13:05;;;;;;;;;3.00;2.00;;;;;15.83;100.00;99217.81;4978985;28;45344;-68
2023/10/27 05:15:31;;;;;;;;;3.67;1.67;;;;;15.78;100.00;99212.66;4978611;28;45836;-68
2023/10/27 05:17:56;;;;;;;;;1.00;1.00;;;;;15.75;100.00;99214.53;4978191;28;45303;-69
2023/10/27 05:20:21;;;;;;;;;7.00;1.00;;;;;15.74;100.00;99223.47;4977809;28;68881;-69
2023/10/27 05:22:47;;;;;;;;;0.00;0.00;;;;;15.75;100.00;99230.50;4977595;28;62335;-67
2023/10/27 05:25:12;;;;;;;;;5.00;1.00;;;;;15.75;100.00;99231.38;4978262;28;46425;-69
2023/10/27 05:27:37;;;;;;;;;3.33;2.00;;;;;15.77;100.00;99220.69;4974716;28;46651;-68
2023/10/27 05:30:03;;;;;;;;;1.67;1.00;;;;;15.81;100.00;99230.28;4957963;28;65159;-69
2023/10/27 05:32:29;;;;;;;;;3.00;1.00;;;;;15.80;100.00;99226.75;4977507;28;45365;-68
2023/10/27 05:34:55;;;;;;;;;3.33;2.00;;;;;15.83;100.00;99224.00;4960043;28;48195;-68
2023/10/27 05:37:21;;;;;;;;;3.67;2.00;;;;;15.81;100.00;99230.28;4979043;28;45402;-71
2023/10/27 05:39:47;;;;;;;;;3.00;0.67;;;;;15.81;100.00;99220.50;4978759;28;45522;-69
2023/10/27 05:42:13;;;;;;;;;3.00;1.33;;;;;15.82;100.00;99213.38;4976987;28;45705;-68
2023/10/27 05:44:41;;;;;;;;;2.67;2.00;;;;;15.84;100.00;99222.22;4960940;28;45407;-70
2023/10/27 05:47:06;;;;;;;;;3.00;1.00;;;;;15.87;100.00;99217.66;4977823;28;45400;-71
2023/10/27 05:49:32;;;;;;;;;1.67;1.67;;;;;15.88;100.00;99211.41;4960567;28;45575;-67
2023/10/27 05:51:58;;;;;;;;;4.67;2.00;;;;;15.88;100.00;99207.88;4978529;28;45257;-68
2023/10/27 05:54:23;;;;;;;;;4.00;1.00;;;;;15.85;100.00;99215.97;4978351;28;46624;-67
2023/10/27 05:56:48;;;;;;;;;1.00;1.00;;;;;15.87;100.00;99203.44;4976875;28;71584;-67
2023/10/27 05:59:14;;;;;;;;;4.67;1.00;;;;;15.81;100.00;99201.00;4959944;28;45486;-68
2023/10/27 06:01:39;;;;;;;;;4.33;1.00;;;;;15.77;100.00;99192.28;4976343;28;67598;-68
2023/10/27 06:04:04;;;;;;;;;1.00;1.00;;;;;15.75;100.00;99193.25;4976841;28;74442;-67
2023/10/27 06:06:30;;;;;;;;;3.00;0.00;;;;;15.76;100.00;99193.19;4977008;28;45457;-68
2023/10/27 06:08:55;;;;;;;;;2.00;1.00;;;;;15.76;100.00;99201.19;4977138;28;63473;-67
2023/10/27 06:11:20;;;;;;;;;3.67;1.33;;;;;15.73;100.00;99193.31;4976942;28;51754;-69
2023/10/27 06:13:46;;;;;;;;;3.00;1.00;;;;;15.73;100.00;99201.31;4977725;28;46357;-68
2023/10/27 06:16:11;;;;;;;;;1.00;1.00;;;;;15.70;100.00;99204.94;4977169;28;45324;-69
2023/10/27 06:18:37;;;;;;;;;1.00;1.00;;;;;15.68;100.00;99208.59;4976520;28;68195;-69
2023/10/27 06:21:04;;;;;;;;;3.67;1.00;;;;;15.71;100.00;99211.13;4978205;28;45539;-68
2023/10/27 06:23:29;;;;;;;;;5.67;2.00;;;;;15.69;100.00;99219.16;4957365;28;48727;-69
2023/10/27 06:25:54;;;;;;;;;3.00;2.00;;;;;15.67;100.00;99210.38;4951128;28;45647;-69
2023/10/27 06:28:20;;;;;;;;;3.33;1.00;;;;;15.65;100.00;99216.66;4973910;28;45487;-70
2023/10/27 06:30:45;;;;;;;;;1.00;1.00;;;;;15.56;100.00;99222.28;5089174;22;65510;-68
2023/10/27 06:33:10;;;;;;;;;2.33;1.00;;;;;15.55;100.00;99224.06;4974384;28;60719;-68
2023/10/27 06:35:36;;;;;;;;;3.00;1.00;;;;;15.50;100.00;99225.16;4967052;28;73013;-68
2023/10/27 06:38:01;;;;;;;;;1.00;1.00;;;;;15.48;100.00;99229.66;4972374;28;60015;-68
2023/10/27 06:40:26;;;;;;;;;4.00;1.00;;;;;15.44;100.00;99228.88;4973660;28;59150;-68
2023/10/27 06:42:52;;;;;;;;;3.33;1.00;;;;;15.36;100.00;99225.63;4968129;28;46516;-68
2023/10/27 06:45:17;;;;;;;;;4.00;1.00;;;;;15.33;100.00;99231.91;4969684;28;71688;-68
2023/10/27 06:47:42;;;;;;;;;2.00;1.67;;;;;15.29;100.00;99226.78;4970598;28;65526;-67
2023/10/27 06:50:08;;;;;;;;;3.00;1.00;;;;;15.24;100.00;99228.72;4972510;28;45665;-68
2023/10/27 06:52:34;;;;;;;;;5.00;1.00;;;;;15.20;100.00;99228.81;4973079;28;47220;-67
2023/10/27 06:55:00;;;;;;;;;2.67;1.00;;;;;15.19;100.00;99234.19;4971671;28;45715;-68
2023/10/27 06:57:25;;;;;;;;;3.33;1.00;;;;;15.18;100.00;99233.31;4974021;28;45623;-68
2023/10/27 06:59:51;;;;;;;;;1.00;1.00;;;;;15.22;100.00;99235.88;4968512;28;46885;-69
2023/10/27 07:02:17;;;;;;;;;3.67;1.00;;;;;15.20;100.00;99233.25;4970551;28;46462;-68
2023/10/27 07:04:42;;;;;;;;;4.00;1.00;;;;;15.17;100.00;99239.53;4974236;28;61852;-68
2023/10/27 07:07:08;;;;;;;;;1.00;1.00;;;;;15.16;100.00;99240.47;4974237;28;45343;-68
2023/10/27 07:09:33;;;;;;;;;1.00;1.00;;;;;15.19;100.00;99244.81;4981316;28;45330;-68
2023/10/27 07:12:03;;;;;;;;;3.67;2.33;;;;;15.16;100.00;99243.13;4967921;28;53990;-68
2023/10/27 07:14:29;;;;;;;;;1.00;1.00;;;;;15.17;100.00;99258.16;4973480;28;45481;-68
2023/10/27 07:16:56;;;;;;;;;3.00;1.00;;;;;15.18;100.00;99251.94;4968752;28;45382;-67
2023/10/27 07:19:22;;;;;;;;;6.00;1.00;;;;;15.21;100.00;99253.63;4970754;28;45521;-67
2023/10/27 07:21:48;;;;;;;;;1.00;1.00;;;;;15.25;100.00;99254.38;4969827;28;46424;-66
2023/10/27 07:24:13;;;;;;;;;3.00;1.00;;;;;15.25;100.00;99244.63;4973954;28;45474;-67
2023/10/27 07:26:38;;;;;;;;;1.33;1.33;;;;;15.28;100.00;99255.13;4975727;28;45448;-67
2023/10/27 07:29:04;;;;;;;;;1.00;1.00;;;;;15.32;100.00;99269.22;4973067;28;59779;-67
2023/10/27 07:31:29;;;;;;;;;2.00;1.00;;;;;15.35;100.00;99269.13;4960321;28;64464;-67
2023/10/27 07:33:55;;;;;;;;;1.00;1.00;;;;;15.38;100.00;99275.19;4947888;28;45558;-67
2023/10/27 07:36:21;;;;;;;;;7.00;2.00;;;;;15.37;100.00;99270.78;4941164;28;45503;-66
2023/10/27 07:38:49;;;;;;;;;4.00;1.00;;;;;15.40;100.00;99277.81;4950445;28;45526;-66
2023/10/27 07:41:14;;;;;;;;;4.00;1.00;;;;;15.40;100.00;99291.97;4929093;28;47251;-66
2023/10/27 07:43:39;;;;;;;;;1.00;1.00;;;;;15.41;100.00;99291.06;4949832;28;68072;-66
2023/10/27 07:46:05;;;;;;;;;1.00;0.67;;;;;15.44;100.00;99292.72;4949124;28;69291;-67
2023/10/27 07:48:30;;;;;;;;;2.00;2.00;;;;;15.41;100.00;99288.38;4948366;28;63024;-64
2023/10/27 07:50:57;;;;;;;;;2.00;2.00;;;;;15.44;100.00;99295.38;4951043;28;46271;-66
2023/10/27 07:53:26;;;;;;;;;0.00;0.00;;;;;15.47;100.00;99300.63;4952636;28;45526;-67
2023/10/27 07:55:52;;;;;;;;;5.67;1.33;;;;;15.46;100.00;99293.56;4946727;28;45504;-67
2023/10/27 07:58:18;;;;;;;;;1.33;1.00;;;;;15.45;100.00;99305.13;4952079;28;45496;-67
2023/10/27 08:00:43;;;;;;;;;2.67;1.00;;;;;15.47;100.00;99300.63;4948876;28;46448;-67
2023/10/27 08:03:08;;;;;;;;;1.67;1.00;;;;;15.46;100.00;99310.38;4952774;28;45413;-67
2023/10/27 08:05:34;;;;;;;;;2.00;2.00;;;;;15.51;100.00;99318.22;4953445;28;64510;-70
2023/10/27 08:07:59;;;;;;;;;5.00;3.00;;;;;15.57;100.00;99331.31;4956973;28;46426;-68
2023/10/27 08:10:24;;;;;;;;;2.33;1.00;;;;;15.59;100.00;99326.78;4952146;28;74328;-68
2023/10/27 08:12:50;;;;;;;;;1.00;1.00;;;;;15.62;100.00;99334.69;4947731;28;45495;-67
2023/10/27 08:15:16;;;;;;;;;1.00;1.00;;;;;15.61;100.00;99327.63;4951347;28;45483;-69
2023/10/27 08:17:41;;;;;;;;;3.00;2.00;;;;;15.64;100.00;99318.69;4933228;28;45492;-69
2023/10/27 08:20:07;;;;;;;;;1.00;1.00;;;;;15.67;100.00;99318.59;4957419;28;46656;-69
2023/10/27 08:22:32;;;;;;;;;3.67;2.00;;;;;15.69;100.00;99322.94;4953260;28;45441;-68
2023/10/27 08:24:58;;;;;;;;;3.33;1.00;;;;;15.72;100.00;99321.97;4957236;28;45497;-69
2023/10/27 08:27:24;;;;;;;;;1.00;1.00;;;;;15.74;100.00;99301.50;4951196;28;45682;-67
2023/10/27 08:29:54;;;;;;;;;4.00;1.00;;;;;15.77;100.00;99308.53;4957355;28;46168;-69
2023/10/27 08:32:19;;;;;;;;;1.00;1.00;;;;;15.81;100.00;99291.50;4918984;28;1140427;-69
2023/10/27 08:34:44;;;;;;;;;5.00;2.00;;;;;15.85;100.00;99291.34;4952727;28;54604;-67
2023/10/27 08:37:09;;;;;;;;;1.00;1.00;;;;;15.87;100.00;99301.94;4956647;28;66465;-68
2023/10/27 08:39:35;;;;;;;;;1.67;1.00;;;;;15.90;100.00;99316.00;4954161;28;73362;-68
2023/10/27 08:42:04;;;;;;;;;4.00;1.00;;;;;15.96;100.00;99307.81;4957071;28;45381;-67
2023/10/27 08:44:29;;;;;;;;;3.00;1.00;;;;;16.01;100.00;99312.09;4941412;28;45607;-67
2023/10/27 08:46:56;;;;;;;;;2.67;1.00;;;;;16.06;100.00;99307.47;4950218;28;45471;-65
2023/10/27 08:49:22;;;;;;;;;1.00;1.00;;;;;16.11;100.00;99314.38;4959773;28;45443;-67
2023/10/27 08:51:48;;;;;;;;;1.67;1.67;;;;;16.20;100.00;99326.50;4955880;28;73813;-67
2023/10/27 08:54:13;;;;;;;;;1.67;1.00;;;;;16.23;100.00;99318.38;4957942;28;46161;-67
2023/10/27 08:56:39;;;;;;;;;2.67;1.00;;;;;16.24;100.00;99307.72;4935537;28;66681;-66
2023/10/27 08:59:09;;;;;;;;;1.67;1.00;;;;;16.28;100.00;99305.78;4957247;28;46820;-67
2023/10/27 09:01:35;;;;;;;;;1.00;1.00;;;;;16.29;100.00;99309.31;4957293;28;45430;-67
2023/10/27 09:04:08;;;;;;;;;4.00;1.67;;;;;16.30;100.00;99319.03;4956688;28;45465;-66
2023/10/27 09:06:35;;;;;;;;;0.00;0.00;;;;;16.33;100.00;99324.25;4947912;28;45375;-69
2023/10/27 09:09:00;;;;;;;;;1.00;0.67;;;;;16.43;100.00;99329.19;4939588;28;45663;-70
2023/10/27 09:11:25;;;;;;;;;1.00;1.00;;;;;16.50;100.00;99344.00;4947915;28;55730;-68
2023/10/27 09:13:51;;;;;;;;;4.33;1.00;;;;;16.50;100.00;99345.81;4935549;28;71729;-70
2023/10/27 09:16:26;;;;;;;;;3.00;1.00;;;;;16.52;100.00;99351.09;4941212;28;45525;-70
2023/10/27 09:18:52;;;;;;;;;2.33;1.00;;;;;16.45;100.00;99351.31;4955323;28;45817;-67
2023/10/27 09:21:36;;;;;;;;;3.33;1.00;;;;;16.49;100.00;99360.06;4953873;28;45654;-65
2023/10/27 09:24:01;;;;;;;;;4.00;1.00;;;;;16.52;100.00;99349.31;4959947;28;45566;-66
2023/10/27 09:26:28;;;;;;;;;3.00;1.00;;;;;16.54;100.00;99350.09;4957599;28;67774;-67
2023/10/27 09:29:03;;;;;;;;;1.67;1.00;;;;;16.55;100.00;99346.50;4942938;28;46461;-68
2023/10/27 09:31:35;;;;;;;;;2.00;0.00;;;;;16.54;100.00;99335.91;4967925;28;45311;-66
2023/10/27 09:34:26;;;;;;;;;4.00;1.00;;;;;16.56;100.00;99334.91;4957490;28;45415;-69
2023/10/27 09:36:52;;;;;;;;;7.00;1.00;;;;;16.53;100.00;99342.19;4951858;28;45578;-67
2023/10/27 09:39:19;;;;;;;;;3.00;1.33;;;;;16.49;100.00;99336.09;4939249;28;46060;-68
2023/10/27 09:41:46;;;;;;;;;1.33;1.33;;;;;16.49;100.00;99347.59;4937453;28;45327;-67
2023/10/27 09:44:14;;;;;;;;;1.00;1.00;;;;;16.52;100.00;99348.44;4954995;28;45376;-68
2023/10/27 09:46:44;;;;;;;;;1.33;1.00;;;;;16.56;100.00;99337.59;4956902;28;45528;-70
2023/10/27 09:49:12;;;;;;;;;0.67;0.67;;;;;16.58;100.00;99335.75;4937260;28;46056;-69
2023/10/27 09:51:40;;;;;;;;;1.33;1.00;;;;;16.58;100.00;99345.53;4932220;28;72985;-67
2023/10/27 09:54:05;;;;;;;;;2.00;1.00;;;;;16.59;100.00;99336.63;4939018;28;66907;-66
2023/10/27 09:56:31;;;;;;;;;0.67;0.67;;;;;16.63;100.00;99349.78;4954736;28;67988;-68
2023/10/27 09:58:57;;;;;;;;;6.33;1.00;;;;;16.73;100.00;99343.22;4955632;28;46547;-68
2023/10/27 10:01:23;;;;;;;;;4.00;1.00;;;;;16.73;100.00;99347.66;4956147;28;72487;-67
2023/10/27 10:03:48;;;;;;;;;3.00;2.00;;;;;16.87;100.00;99355.13;4936042;28;59125;-67
2023/10/27 10:06:15;;;;;;;;;3.00;1.33;;;;;17.10;100.00;99343.56;4954904;28;67290;-67
2023/10/27 10:09:01;;;;;;;;;2.67;1.00;;;;;17.20;100.00;99344.94;4955203;28;46486;-70
2023/10/27 10:11:27;;;;;;;;;1.00;1.00;;;;;17.35;100.00;99346.13;4955441;28;45507;-67
2023/10/27 10:13:53;;;;;;;;;1.00;1.00;;;;;17.42;100.00;99360.97;4957895;28;45528;-67
2023/10/27 10:16:19;;;;;;;;;4.33;2.00;;;;;17.48;100.00;99350.03;4941316;28;45402;-69
2023/10/27 10:18:50;;;;;;;;;2.33;1.00;;;;;17.53;100.00;99337.38;4934936;28;69550;-68
2023/10/27 10:21:34;;;;;;;;;3.00;2.00;;;;;17.62;100.00;99342.31;4952448;28;45394;-70
2023/10/27 10:24:03;;;;;;;;;3.67;1.00;;;;;17.70;100.00;99344.69;4954906;28;45527;-68
2023/10/27 10:27:07;;;;;;;;;5.00;2.00;;;;;17.75;100.00;99340.91;4952881;28;45421;-68
2023/10/27 10:29:35;;;;;;;;;2.00;2.00;;;;;17.80;100.00;99344.25;4956563;28;46333;-68
2023/10/27 10:32:29;;;;;;;;;4.33;2.00;;;;;17.88;100.00;99333.25;4959129;28;45582;-67
2023/10/27 10:35:23;;;;;;;;;3.67;1.00;;;;;17.94;100.00;99343.66;4950975;28;45405;-68
2023/10/27 10:37:51;;;;;;;;;2.67;1.00;;;;;18.02;100.00;99336.19;4950147;28;45677;-66
2023/10/27 10:40:18;;;;;;;;;1.00;1.00;;;;;18.05;100.00;99335.19;4936202;28;45530;-69
2023/10/27 10:43:23;;;;;;;;;2.33;2.00;;;;;18.13;100.00;99334.84;4935759;28;45608;-67
2023/10/27 10:45:54;;;;;;;;;3.00;2.00;;;;;18.16;100.00;99338.25;4948376;28;45525;-69
2023/10/27 10:48:21;;;;;;;;;1.67;1.67;;;;;18.16;100.00;99332.91;4956599;28;45653;-69
2023/10/27 10:50:48;;;;;;;;;1.00;1.00;;;;;18.09;100.00;99331.44;4953538;28;46752;-68
2023/10/27 10:53:23;;;;;;;;;2.33;1.00;;;;;18.01;100.00;99326.44;4956288;28;45584;-67
2023/10/27 10:55:50;;;;;;;;;4.00;1.00;;;;;17.72;100.00;99330.34;4955842;28;45361;-67
2023/10/27 10:58:25;;;;;;;;;5.00;2.00;;;;;17.65;100.00;99330.66;4955887;28;45644;-65
2023/10/27 11:00:52;;;;;;;;;4.00;2.00;;;;;17.74;100.00;99332.97;4952300;28;45839;-66
2023/10/27 11:03:21;;;;;;;;;8.00;1.33;;;;;17.75;100.00;99319.56;4953322;28;45490;-68
2023/10/27 11:05:47;;;;;;;;;6.67;1.00;;;;;17.79;100.00;99317.63;4930910;28;45411;-67
2023/10/27 11:08:22;;;;;;;;;2.33;1.33;;;;;17.74;100.00;99315.16;4938615;28;45467;-68
2023/10/27 11:10:48;;;;;;;;;7.00;1.33;;;;;17.72;100.00;99321.44;4942829;28;46755;-67
2023/10/27 11:13:13;;;;;;;;;7.00;3.00;;;;;17.69;100.00;99325.13;4951756;28;66147;-66
2023/10/27 11:15:43;;;;;;;;;1.33;1.00;;;;;17.66;100.00;99319.91;4953840;28;69059;-66
2023/10/27 11:18:11;;;;;;;;;2.67;1.00;;;;;17.66;100.00;99337.72;4952862;28;45526;-69
2023/10/27 11:20:40;;;;;;;;;3.00;1.00;;;;;17.69;100.00;99334.94;4949197;28;46921;-67
2023/10/27 11:23:10;;;;;;;;;4.67;2.33;;;;;17.74;100.00;99328.50;4938472;28;45425;-67